Time;durP1;ratioP1;P1;durP2;ratioP2;P2;SDS_P1;SDS_P2;PMS_P1;PMS_P2;Temp;Humidity;BMP_temperature;BMP_pressure;BME280_temperature;BME280_humidity;BME280_pressure;Samples;Min_cycle;Max_cycle;Signal;HPM_P1;HPM_P2
2021/12/18 00:00:29;;;;;;;59.50;22.90;;;3.40;99.90;;;;;;4985086;28;20030;-55
2021/12/18 00:02:55;;;;;;;51.42;21.42;;;3.30;99.90;;;;;;4982533;28;20236;-57
2021/12/18 00:05:20;;;;;;;67.70;24.23;;;3.30;99.90;;;;;;4977857;28;20062;-58
2021/12/18 00:07:46;;;;;;;68.72;24.75;;;3.30;99.90;;;;;;4984322;28;20036;-57
2021/12/18 00:10:12;;;;;;;63.65;24.45;;;3.30;99.90;;;;;;4986522;28;20493;-58
2021/12/18 00:12:37;;;;;;;75.47;24.83;;;3.30;99.90;;;;;;4979674;28;20431;-55
2021/12/18 00:15:03;;;;;;;73.50;25.80;;;3.20;99.90;;;;;;4978324;28;20030;-59
2021/12/18 00:17:29;;;;;;;72.10;26.38;;;3.20;99.90;;;;;;4986900;28;20097;-56
2021/12/18 00:19:54;;;;;;;79.15;27.38;;;3.20;99.90;;;;;;4985851;28;20713;-56
2021/12/18 00:22:20;;;;;;;67.82;25.10;;;3.30;99.90;;;;;;4995070;28;20435;-57
2021/12/18 00:24:45;;;;;;;78.40;25.55;;;3.30;99.90;;;;;;4980987;28;20177;-55
2021/12/18 00:27:11;;;;;;;74.80;24.13;;;3.30;99.90;;;;;;4979873;28;20440;-60
2021/12/18 00:29:37;;;;;;;67.30;25.83;;;3.30;99.90;;;;;;4975272;28;20624;-50
2021/12/18 00:32:03;;;;;;;61.53;23.00;;;3.20;99.90;;;;;;4979536;28;20030;-58
2021/12/18 00:34:28;;;;;;;64.68;22.88;;;3.10;99.90;;;;;;4987174;28;20504;-56
2021/12/18 00:36:54;;;;;;;72.22;23.20;;;3.00;99.90;;;;;;4979163;28;20028;-58
2021/12/18 00:39:19;;;;;;;75.18;24.63;;;3.00;99.90;;;;;;4984971;28;20034;-59
2021/12/18 00:44:13;;;;;;;72.55;24.98;;;3.30;99.90;;;;;;4987092;28;20488;-59
2021/12/18 00:46:44;;;;;;;67.88;24.17;;;3.30;99.90;;;;;;4983876;28;20056;-56
2021/12/18 00:49:13;;;;;;;68.10;23.30;;;3.40;99.90;;;;;;4982059;28;20042;-58
2021/12/18 00:51:39;;;;;;;67.70;25.80;;;3.40;99.90;;;;;;4982588;28;20126;-55
2021/12/18 00:54:05;;;;;;;75.88;24.70;;;3.30;99.90;;;;;;4986874;28;20117;-54
2021/12/18 00:56:32;;;;;;;69.82;24.02;;;3.30;99.90;;;;;;4994503;28;20742;-57
2021/12/18 00:58:57;;;;;;;72.20;24.95;;;3.30;99.90;;;;;;4987521;28;20092;-56
2021/12/18 01:01:26;;;;;;;73.63;24.42;;;3.40;99.90;;;;;;4982676;28;20106;-56
2021/12/18 01:03:53;;;;;;;75.10;24.50;;;3.40;99.90;;;;;;4977592;28;20031;-56
2021/12/18 01:06:20;;;;;;;66.25;23.85;;;3.40;99.90;;;;;;4981642;28;20062;-59
2021/12/18 01:08:48;;;;;;;66.75;23.27;;;3.50;99.90;;;;;;4982164;28;20030;-59
2021/12/18 01:11:34;;;;;;;63.30;22.38;;;3.50;99.90;;;;;;4981860;28;20031;-56
2021/12/18 01:24:44;;;;;;;64.18;22.65;;;3.70;99.90;;;;;;4982508;28;20188;-54
2021/12/18 01:27:10;;;;;;;58.97;21.77;;;3.70;99.90;;;;;;4985452;28;20113;-58
2021/12/18 01:29:35;;;;;;;60.35;23.65;;;3.80;99.90;;;;;;4993667;28;20030;-59
2021/12/18 01:32:01;;;;;;;52.88;20.40;;;3.80;99.90;;;;;;4982423;28;20166;-57
2021/12/18 01:34:26;;;;;;;64.22;23.17;;;3.70;99.90;;;;;;4977018;28;20026;-52
2021/12/18 01:36:52;;;;;;;52.72;20.77;;;3.80;99.90;;;;;;4979710;28;20024;-54
2021/12/18 01:39:17;;;;;;;41.83;16.45;;;3.80;99.90;;;;;;4994017;28;20562;-54
2021/12/18 01:52:41;;;;;;;41.58;17.70;;;3.40;99.90;;;;;;4990239;28;20041;-55
2021/12/18 01:55:09;;;;;;;53.25;19.50;;;3.40;99.90;;;;;;4990688;28;20511;-54
2021/12/18 01:57:35;;;;;;;55.95;21.08;;;3.50;99.90;;;;;;4991242;28;20030;-58
2021/12/18 02:00:00;;;;;;;51.00;20.77;;;3.60;99.90;;;;;;4991684;28;20060;-60
2021/12/18 02:02:26;;;;;;;55.58;21.73;;;3.60;99.90;;;;;;4989189;28;20076;-57
2021/12/18 02:04:52;;;;;;;58.75;21.95;;;3.70;99.90;;;;;;4992203;28;20026;-57
2021/12/18 02:07:18;;;;;;;54.92;22.35;;;3.80;99.90;;;;;;4982603;28;20025;-58
2021/12/18 02:10:03;;;;;;;58.47;22.30;;;3.90;99.90;;;;;;4991328;28;20031;-55
2021/12/18 02:12:41;;;;;;;57.88;23.63;;;3.90;99.90;;;;;;4991060;28;20030;-59
2021/12/18 02:20:41;;;;;;;52.33;21.17;;;4.00;99.90;;;;;;4987442;28;20021;-56
2021/12/18 02:23:07;;;;;;;61.75;23.30;;;4.10;99.90;;;;;;4990484;28;20048;-58
2021/12/18 02:25:35;;;;;;;49.80;22.33;;;4.10;99.90;;;;;;4996389;28;20404;-54
2021/12/18 02:28:02;;;;;;;47.17;21.88;;;4.20;99.90;;;;;;5001163;28;20033;-54
2021/12/18 02:30:30;;;;;;;56.67;22.35;;;4.20;99.90;;;;;;4990959;28;20026;-59
2021/12/18 02:32:56;;;;;;;48.75;20.02;;;4.20;99.90;;;;;;4984295;28;20026;-56
2021/12/18 02:35:29;;;;;;;50.47;21.40;;;4.30;99.90;;;;;;4974637;28;20400;-58
2021/12/18 02:38:17;;;;;;;43.30;20.33;;;4.30;99.90;;;;;;4990477;28;20096;-58
2021/12/18 02:43:09;;;;;;;45.33;20.77;;;4.40;99.90;;;;;;4989492;28;20117;-57
2021/12/18 02:45:34;;;;;;;50.90;22.13;;;4.40;99.90;;;;;;4988386;28;20038;-58
2021/12/18 02:48:00;;;;;;;49.53;21.42;;;4.40;99.90;;;;;;4988114;28;20096;-56
2021/12/18 02:50:25;;;;;;;48.15;21.25;;;4.40;99.90;;;;;;4985959;28;20034;-58
2021/12/18 02:52:51;;;;;;;43.95;21.05;;;4.40;99.90;;;;;;4988414;28;20042;-59
2021/12/18 02:55:16;;;;;;;42.83;20.02;;;4.50;99.90;;;;;;4989237;28;20504;-54
2021/12/18 02:57:42;;;;;;;49.40;21.58;;;4.50;99.90;;;;;;4988106;28;20116;-59
2021/12/18 03:00:09;;;;;;;43.05;20.83;;;4.50;99.90;;;;;;4987680;28;20038;-53
2021/12/18 03:02:39;;;;;;;44.67;20.10;;;4.50;99.90;;;;;;4985812;28;20030;-59
2021/12/18 03:05:08;;;;;;;45.78;21.13;;;4.50;99.90;;;;;;4985824;28;20400;-56
2021/12/18 03:07:34;;;;;;;48.08;21.08;;;4.60;99.90;;;;;;4988434;28;20025;-58
2021/12/18 03:25:58;;;;;;;40.85;19.35;;;4.60;99.90;;;;;;4988526;28;20062;-58
2021/12/18 03:28:28;;;;;;;33.75;15.32;;;4.60;99.90;;;;;;4988114;28;20471;-60
2021/12/18 03:30:55;;;;;;;38.92;18.02;;;4.60;99.90;;;;;;4954217;28;20026;-60
2021/12/18 03:33:22;;;;;;;32.65;17.00;;;4.60;99.90;;;;;;4987323;28;20049;-56
2021/12/18 03:35:48;;;;;;;26.60;12.93;;;4.50;99.90;;;;;;4983322;28;20027;-54
2021/12/18 03:38:14;;;;;;;38.85;18.67;;;4.50;99.90;;;;;;4988091;28;20030;-57
2021/12/18 03:40:39;;;;;;;41.13;18.80;;;4.50;99.90;;;;;;4981695;28;20046;-58
2021/12/18 03:43:05;;;;;;;43.80;20.75;;;4.50;99.90;;;;;;4987778;28;20141;-55
2021/12/18 03:45:31;;;;;;;53.88;22.65;;;4.50;99.90;;;;;;4988691;28;20480;-59
2021/12/18 03:47:56;;;;;;;50.65;21.02;;;4.50;99.90;;;;;;4991135;28;20031;-58
2021/12/18 03:50:22;;;;;;;47.22;20.88;;;4.50;99.90;;;;;;4991174;28;20030;-59
2021/12/18 03:52:49;;;;;;;48.85;21.13;;;4.60;99.90;;;;;;4988086;28;20027;-59
2021/12/18 03:55:16;;;;;;;25.85;11.73;;;4.60;99.90;;;;;;4991451;28;20038;-56
2021/12/18 03:57:41;;;;;;;16.27;9.82;;;4.60;99.90;;;;;;4990703;28;20030;-56
2021/12/18 04:00:14;;;;;;;18.67;9.82;;;4.50;99.90;;;;;;4990504;28;20072;-51
2021/12/18 04:02:40;;;;;;;20.75;10.32;;;4.40;99.90;;;;;;4989959;28;20551;-58
2021/12/18 04:05:07;;;;;;;18.92;9.57;;;4.40;99.90;;;;;;4991213;28;20034;-58
2021/12/18 04:07:40;;;;;;;24.35;11.00;;;4.40;99.90;;;;;;4990807;28;20034;-57
2021/12/18 04:10:07;;;;;;;23.87;12.77;;;4.30;99.90;;;;;;4991329;28;20036;-53
2021/12/18 04:12:32;;;;;;;24.85;12.00;;;4.20;99.90;;;;;;4988635;28;20025;-56
2021/12/18 04:14:58;;;;;;;28.52;12.18;;;4.30;99.90;;;;;;4991898;28;20416;-57
2021/12/18 04:17:23;;;;;;;28.58;12.57;;;4.30;99.90;;;;;;4990438;28;20108;-57
2021/12/18 04:19:49;;;;;;;29.88;14.23;;;4.30;99.90;;;;;;4998562;28;20447;-58
2021/12/18 04:22:14;;;;;;;24.65;12.27;;;4.30;99.90;;;;;;4991126;28;20122;-58
2021/12/18 04:24:40;;;;;;;34.28;14.77;;;4.30;99.90;;;;;;4988681;28;20113;-58
2021/12/18 04:27:05;;;;;;;32.03;13.52;;;4.40;99.90;;;;;;4989971;28;20559;-60
2021/12/18 04:29:31;;;;;;;30.42;14.40;;;4.30;99.90;;;;;;4991464;28;20424;-60
2021/12/18 04:31:56;;;;;;;39.22;18.83;;;4.40;99.90;;;;;;4990457;28;20365;-59
2021/12/18 04:34:22;;;;;;;38.15;17.75;;;4.40;99.90;;;;;;4989446;28;20369;-55
2021/12/18 04:36:48;;;;;;;42.40;19.25;;;4.50;99.90;;;;;;4991287;28;20077;-59
2021/12/18 04:39:13;;;;;;;41.47;16.65;;;4.50;99.90;;;;;;4987278;28;20034;-57
2021/12/18 04:41:48;;;;;;;40.92;19.05;;;4.50;99.90;;;;;;4989720;28;20025;-56
2021/12/18 04:44:14;;;;;;;38.20;18.27;;;4.60;99.90;;;;;;4991014;28;20044;-56
2021/12/18 04:46:39;;;;;;;44.40;18.13;;;4.60;99.90;;;;;;4990115;28;20018;-57
2021/12/18 04:49:05;;;;;;;42.78;19.30;;;4.60;99.90;;;;;;4991316;28;20125;-57
2021/12/18 04:51:31;;;;;;;39.60;17.58;;;4.70;99.90;;;;;;4991683;28;20041;-57
2021/12/18 04:53:56;;;;;;;38.30;18.08;;;4.70;99.90;;;;;;4985832;28;20026;-58
2021/12/18 04:56:22;;;;;;;37.33;16.88;;;4.70;99.90;;;;;;4990675;28;20044;-54
2021/12/18 04:58:48;;;;;;;36.80;18.30;;;4.70;99.90;;;;;;4990735;28;20129;-60
2021/12/18 05:01:15;;;;;;;41.95;18.20;;;4.80;99.90;;;;;;5007496;23;20056;-54
2021/12/18 05:03:41;;;;;;;43.55;18.33;;;4.80;99.90;;;;;;4969616;28;20409;-60
2021/12/18 05:06:07;;;;;;;36.17;17.17;;;4.80;99.90;;;;;;4971136;28;20027;-56
2021/12/18 05:08:33;;;;;;;39.67;17.92;;;4.80;99.90;;;;;;4971084;28;20026;-58
2021/12/18 05:10:58;;;;;;;35.72;16.77;;;4.90;99.90;;;;;;4971484;28;20022;-60
2021/12/18 05:13:24;;;;;;;37.63;17.13;;;4.90;99.90;;;;;;4968553;28;20019;-59
2021/12/18 05:15:49;;;;;;;41.13;18.05;;;4.90;99.90;;;;;;4967482;28;20031;-55
2021/12/18 05:18:15;;;;;;;39.40;16.27;;;4.90;99.90;;;;;;4970864;28;20042;-62
2021/12/18 05:20:40;;;;;;;23.05;12.68;;;4.90;99.90;;;;;;4968038;28;20129;-58
2021/12/18 05:23:06;;;;;;;23.98;11.95;;;4.90;99.90;;;;;;4970717;28;20035;-61
2021/12/18 05:25:31;;;;;;;29.15;13.70;;;4.80;99.90;;;;;;4969594;28;20220;-54
2021/12/18 05:27:57;;;;;;;26.75;12.90;;;4.90;99.90;;;;;;4969473;28;20031;-58
2021/12/18 05:30:23;;;;;;;20.77;11.57;;;4.80;99.90;;;;;;4968557;28;20030;-59
2021/12/18 05:32:48;;;;;;;26.38;12.18;;;4.80;99.90;;;;;;4970507;28;20037;-55
2021/12/18 05:35:15;;;;;;;23.35;12.30;;;4.60;99.90;;;;;;4966514;28;20158;-57
2021/12/18 05:37:50;;;;;;;33.55;15.20;;;4.50;99.90;;;;;;4968584;28;20034;-59
2021/12/18 05:40:20;;;;;;;40.40;15.88;;;4.40;99.90;;;;;;4968765;28;20929;-57
2021/12/18 05:42:48;;;;;;;85.78;18.63;;;4.40;99.90;;;;;;4966430;28;20054;-55
2021/12/18 05:45:14;;;;;;;49.90;17.85;;;4.30;99.90;;;;;;4969984;28;20146;-54
2021/12/18 05:47:39;;;;;;;49.15;19.88;;;4.30;99.90;;;;;;4970705;28;20511;-55
2021/12/18 05:50:06;;;;;;;56.22;19.80;;;4.30;99.90;;;;;;4969957;28;20154;-57
2021/12/18 05:52:32;;;;;;;68.05;21.02;;;4.30;99.90;;;;;;4968057;28;20035;-59
2021/12/18 05:54:58;;;;;;;53.65;19.65;;;4.30;99.90;;;;;;4971109;28;20047;-60
2021/12/18 05:57:23;;;;;;;72.40;20.40;;;4.30;99.90;;;;;;4967425;28;20026;-57
2021/12/18 05:59:50;;;;;;;46.35;17.73;;;4.30;99.90;;;;;;4967893;28;20138;-59
2021/12/18 06:02:15;;;;;;;80.88;17.42;;;4.30;99.90;;;;;;4970201;28;20533;-57
2021/12/18 06:04:42;;;;;;;62.85;19.27;;;4.20;99.90;;;;;;4963571;28;20030;-55
2021/12/18 06:07:27;;;;;;;50.58;18.60;;;4.20;99.90;;;;;;4965971;28;20022;-58
2021/12/18 06:09:52;;;;;;;51.90;20.08;;;4.20;99.90;;;;;;4966644;28;21481;-61
2021/12/18 06:12:18;;;;;;;65.90;19.80;;;4.20;99.90;;;;;;4968545;28;20034;-59
2021/12/18 06:14:44;;;;;;;83.05;22.50;;;4.20;99.90;;;;;;4969583;28;20035;-58
2021/12/18 06:17:09;;;;;;;75.63;21.80;;;4.20;99.90;;;;;;4968436;28;20030;-57
2021/12/18 06:19:35;;;;;;;81.20;21.77;;;4.20;99.90;;;;;;4971263;28;20037;-59
2021/12/18 06:22:00;;;;;;;133.75;24.63;;;4.20;99.90;;;;;;4968472;28;20043;-59
2021/12/18 06:24:28;;;;;;;89.57;21.60;;;4.20;99.90;;;;;;4969337;28;20031;-56
2021/12/18 06:26:54;;;;;;;95.22;22.58;;;4.20;99.90;;;;;;4967997;28;20023;-55
2021/12/18 06:29:20;;;;;;;79.53;19.13;;;4.20;99.90;;;;;;4968789;28;20053;-56
2021/12/18 06:31:45;;;;;;;88.30;19.85;;;4.10;99.90;;;;;;4970263;28;20109;-52
2021/12/18 06:34:12;;;;;;;83.55;20.17;;;4.10;99.90;;;;;;4965463;28;20025;-55
2021/12/18 06:36:38;;;;;;;78.53;20.58;;;4.20;99.90;;;;;;4965628;28;20113;-59
2021/12/18 06:39:04;;;;;;;76.53;22.77;;;4.20;99.90;;;;;;4968259;28;20126;-57
2021/12/18 06:41:29;;;;;;;70.43;20.40;;;4.20;99.90;;;;;;4969629;28;20484;-58
2021/12/18 06:43:55;;;;;;;333.83;77.70;;;4.10;99.90;;;;;;4966005;28;20061;-52
2021/12/18 06:46:21;;;;;;;404.67;116.47;;;4.20;99.90;;;;;;4966307;28;20374;-57
2021/12/18 06:48:46;;;;;;;156.68;44.33;;;4.20;99.90;;;;;;4969921;28;20555;-57
2021/12/18 06:51:12;;;;;;;118.05;37.33;;;4.20;99.90;;;;;;4969399;28;20027;-58
2021/12/18 06:53:37;;;;;;;225.85;89.28;;;4.20;99.90;;;;;;4970489;28;20122;-56
2021/12/18 06:56:06;;;;;;;96.80;37.45;;;4.20;99.90;;;;;;4965254;28;20038;-57
2021/12/18 06:58:32;;;;;;;187.20;66.75;;;4.20;99.90;;;;;;4968268;28;20062;-55
2021/12/18 07:00:58;;;;;;;120.15;30.75;;;4.20;99.90;;;;;;4968564;28;20070;-58
2021/12/18 07:03:24;;;;;;;77.78;23.35;;;4.20;99.90;;;;;;4967500;28;20038;-60
2021/12/18 07:05:50;;;;;;;111.95;40.80;;;4.20;99.90;;;;;;4969301;28;20027;-56
2021/12/18 07:08:16;;;;;;;67.10;23.48;;;4.20;99.90;;;;;;4967993;28;20093;-58
2021/12/18 07:10:42;;;;;;;109.15;23.23;;;4.20;99.90;;;;;;4966284;28;20026;-58
2021/12/18 07:13:08;;;;;;;76.45;21.15;;;4.20;99.90;;;;;;4969712;28;20023;-59
2021/12/18 07:15:33;;;;;;;68.45;21.92;;;4.20;99.90;;;;;;4965225;28;20535;-56
2021/12/18 07:17:59;;;;;;;95.60;23.27;;;4.30;99.90;;;;;;4968916;28;20034;-57
2021/12/18 07:20:27;;;;;;;75.80;23.63;;;4.20;99.90;;;;;;4968717;28;20487;-59
2021/12/18 07:22:53;;;;;;;87.15;22.30;;;4.20;99.90;;;;;;4970138;28;20490;-58
2021/12/18 07:25:19;;;;;;;55.20;19.73;;;4.20;99.90;;;;;;4972473;28;20045;-60
2021/12/18 07:27:45;;;;;;;69.53;19.80;;;4.20;99.90;;;;;;4973075;28;20027;-56
2021/12/18 07:30:12;;;;;;;90.13;22.98;;;4.30;99.90;;;;;;4969859;28;20452;-52
2021/12/18 07:32:38;;;;;;;48.38;19.17;;;4.30;99.90;;;;;;4971802;28;20412;-59
2021/12/18 07:35:06;;;;;;;92.22;21.13;;;4.30;99.90;;;;;;4972571;28;20389;-58
2021/12/18 07:37:31;;;;;;;50.75;19.85;;;4.30;99.90;;;;;;4968985;28;20029;-56
2021/12/18 07:39:57;;;;;;;64.47;19.35;;;4.30;99.90;;;;;;4972856;28;20034;-56
2021/12/18 07:42:23;;;;;;;54.58;18.25;;;4.30;99.90;;;;;;4970056;28;20031;-59
2021/12/18 07:44:49;;;;;;;43.58;17.52;;;4.30;99.90;;;;;;4971201;28;20105;-59
2021/12/18 07:47:15;;;;;;;43.40;18.38;;;4.30;99.90;;;;;;4973255;28;20431;-59
2021/12/18 07:49:40;;;;;;;39.85;18.70;;;4.30;99.90;;;;;;4972178;28;20031;-61
2021/12/18 07:52:07;;;;;;;44.28;17.55;;;4.30;99.90;;;;;;4969455;28;20030;-59
2021/12/18 07:54:33;;;;;;;37.83;16.50;;;4.30;99.90;;;;;;4972323;28;20031;-61
2021/12/18 07:56:59;;;;;;;41.60;16.52;;;4.40;99.90;;;;;;4971759;28;20518;-59
2021/12/18 07:59:25;;;;;;;34.78;15.85;;;4.30;99.90;;;;;;4971050;28;20113;-60
2021/12/18 08:01:50;;;;;;;37.22;15.82;;;4.30;99.90;;;;;;4949385;28;20136;-59
2021/12/18 08:04:16;;;;;;;41.70;19.02;;;4.40;99.90;;;;;;4969308;28;20035;-57
2021/12/18 08:06:42;;;;;;;53.65;24.45;;;4.50;99.90;;;;;;4971550;28;20039;-56
2021/12/18 08:09:07;;;;;;;57.10;21.52;;;4.40;99.90;;;;;;4971017;28;20074;-58
2021/12/18 08:11:33;;;;;;;44.53;16.85;;;4.40;99.90;;;;;;4972349;28;20721;-59
2021/12/18 08:13:58;;;;;;;110.13;44.25;;;4.40;99.90;;;;;;4971372;28;20119;-57
2021/12/18 08:16:24;;;;;;;59.55;20.95;;;4.40;99.90;;;;;;4971697;28;20038;-58
2021/12/18 08:18:50;;;;;;;197.38;24.92;;;4.40;99.90;;;;;;4972774;28;20392;-57
2021/12/18 08:21:16;;;;;;;132.85;20.45;;;4.40;99.90;;;;;;4971737;28;20033;-59
2021/12/18 08:23:41;;;;;;;113.93;18.88;;;4.50;99.90;;;;;;4972514;28;20034;-57
2021/12/18 08:26:08;;;;;;;141.82;18.83;;;4.40;99.90;;;;;;4968176;28;20035;-57
2021/12/18 08:28:33;;;;;;;169.57;19.63;;;4.50;99.90;;;;;;4972776;28;20464;-56
2021/12/18 08:30:59;;;;;;;267.27;19.98;;;4.50;99.90;;;;;;4971402;28;20067;-56
2021/12/18 08:33:25;;;;;;;229.73;40.13;;;4.40;99.90;;;;;;4971259;28;20058;-58
2021/12/18 08:35:51;;;;;;;193.13;21.35;;;4.40;99.90;;;;;;4972418;28;20027;-59
2021/12/18 08:38:16;;;;;;;157.05;21.48;;;4.40;99.90;;;;;;4969538;28;20035;-59
2021/12/18 08:40:42;;;;;;;102.50;34.03;;;4.40;99.90;;;;;;4970090;28;20062;-58
2021/12/18 08:43:09;;;;;;;65.22;20.98;;;4.40;99.90;;;;;;4971536;28;20035;-57
2021/12/18 08:45:35;;;;;;;104.40;28.67;;;4.40;99.90;;;;;;4971150;28;20485;-57
2021/12/18 08:48:01;;;;;;;52.70;16.83;;;4.40;99.90;;;;;;4969801;28;20810;-53
2021/12/18 08:50:26;;;;;;;38.38;15.30;;;4.40;99.90;;;;;;4970610;28;20110;-57
2021/12/18 08:52:53;;;;;;;51.95;18.10;;;4.40;99.90;;;;;;4972046;28;20373;-54
2021/12/18 08:55:21;;;;;;;47.45;16.80;;;4.40;99.90;;;;;;4971810;28;20031;-56
2021/12/18 08:57:46;;;;;;;91.53;22.77;;;4.40;99.90;;;;;;4970720;28;20049;-54
2021/12/18 09:00:17;;;;;;;69.68;18.55;;;4.40;99.90;;;;;;4960285;28;20416;-56
2021/12/18 09:02:45;;;;;;;55.55;18.52;;;4.40;99.90;;;;;;4989196;28;20435;-56
2021/12/18 09:05:11;;;;;;;63.53;21.85;;;4.40;99.90;;;;;;4984702;28;20038;-56
2021/12/18 09:07:37;;;;;;;46.95;17.50;;;4.50;99.90;;;;;;4987790;28;20414;-57
2021/12/18 09:10:05;;;;;;;75.40;21.70;;;4.50;99.90;;;;;;4990512;28;20109;-57
2021/12/18 09:12:31;;;;;;;73.65;23.70;;;4.40;99.90;;;;;;4989935;28;20092;-57
2021/12/18 09:14:57;;;;;;;41.38;17.85;;;4.40;99.90;;;;;;4990146;28;20045;-58
2021/12/18 09:17:22;;;;;;;37.72;17.88;;;4.50;99.90;;;;;;4987623;28;20022;-58
2021/12/18 09:19:48;;;;;;;96.93;32.35;;;4.50;99.90;;;;;;4987639;28;20030;-53
2021/12/18 09:22:14;;;;;;;115.78;38.15;;;4.50;99.90;;;;;;4989519;28;20044;-56
2021/12/18 09:24:40;;;;;;;70.97;24.85;;;4.60;99.90;;;;;;4989218;28;20415;-56
2021/12/18 09:27:06;;;;;;;114.15;42.80;;;4.60;99.90;;;;;;4988165;28;20022;-58
2021/12/18 09:29:32;;;;;;;54.63;18.25;;;4.60;99.90;;;;;;4987783;28;20030;-56
2021/12/18 09:31:58;;;;;;;50.75;19.70;;;4.50;99.90;;;;;;4989821;28;20026;-54
2021/12/18 09:34:27;;;;;;;90.65;29.30;;;4.50;99.90;;;;;;4987779;28;20553;-57
2021/12/18 09:36:52;;;;;;;114.57;38.92;;;4.50;99.90;;;;;;4984836;28;20018;-54
2021/12/18 09:39:19;;;;;;;90.95;22.02;;;4.60;99.90;;;;;;4985172;28;20033;-54
2021/12/18 09:41:48;;;;;;;53.60;21.38;;;4.60;99.90;;;;;;4990194;28;20041;-56
2021/12/18 09:44:20;;;;;;;69.35;18.65;;;4.60;99.90;;;;;;4988194;28;20039;-56
2021/12/18 09:46:45;;;;;;;59.28;19.17;;;4.70;99.90;;;;;;4990188;28;20176;-56
2021/12/18 09:49:11;;;;;;;53.58;17.55;;;4.80;99.90;;;;;;4989459;28;20531;-56
2021/12/18 09:51:37;;;;;;;263.50;39.85;;;4.80;99.90;;;;;;4990696;28;20076;-57
2021/12/18 09:54:03;;;;;;;112.82;34.22;;;4.80;99.90;;;;;;4988581;28;20153;-55
2021/12/18 09:56:28;;;;;;;246.35;49.35;;;4.90;99.90;;;;;;4990115;28;20141;-55
2021/12/18 09:58:54;;;;;;;317.98;75.15;;;4.80;99.90;;;;;;4989017;28;20488;-58
2021/12/18 10:01:21;;;;;;;155.60;42.78;;;4.80;99.90;;;;;;4979801;28;20500;-58
2021/12/18 10:03:54;;;;;;;92.07;21.42;;;4.80;99.90;;;;;;4988861;28;20068;-58
2021/12/18 10:06:41;;;;;;;52.03;16.15;;;4.90;99.90;;;;;;4989229;28;20050;-55
2021/12/18 10:09:11;;;;;;;35.83;17.17;;;4.80;99.90;;;;;;4989496;28;20026;-57
2021/12/18 10:11:50;;;;;;;134.43;15.82;;;4.90;99.90;;;;;;4985279;28;20049;-58
2021/12/18 10:14:18;;;;;;;164.80;39.65;;;4.80;99.90;;;;;;4987854;28;20030;-58
2021/12/18 10:16:47;;;;;;;170.93;23.58;;;4.80;99.90;;;;;;4989149;28;20030;-59
2021/12/18 10:19:35;;;;;;;119.13;37.75;;;4.80;99.90;;;;;;4989408;28;20026;-57
2021/12/18 10:22:04;;;;;;;89.15;20.65;;;4.90;99.90;;;;;;4989265;28;20038;-56
2021/12/18 10:24:32;;;;;;;43.70;18.23;;;4.90;99.90;;;;;;4988676;28;20022;-56
2021/12/18 10:26:58;;;;;;;57.33;22.38;;;5.00;99.90;;;;;;4989512;28;20456;-56
2021/12/18 10:29:36;;;;;;;101.72;36.70;;;5.00;99.90;;;;;;4988683;28;20036;-56
2021/12/18 10:32:19;;;;;;;83.28;29.80;;;5.00;99.90;;;;;;4984114;28;20058;-57
2021/12/18 10:34:56;;;;;;;81.38;20.98;;;5.10;99.90;;;;;;4985896;28;20361;-59
2021/12/18 10:37:30;;;;;;;49.67;20.80;;;5.10;99.90;;;;;;4988585;28;20026;-56
2021/12/18 10:40:14;;;;;;;115.88;34.40;;;5.00;99.90;;;;;;4989193;28;20038;-56
2021/12/18 10:42:44;;;;;;;100.10;25.27;;;5.10;99.90;;;;;;4987309;28;20404;-57
2021/12/18 10:45:20;;;;;;;105.90;47.47;;;5.10;99.90;;;;;;4986204;28;20037;-55
2021/12/18 10:47:58;;;;;;;127.18;38.67;;;5.10;99.90;;;;;;4986138;28;20048;-55
2021/12/18 10:50:50;;;;;;;75.28;25.17;;;5.10;99.90;;;;;;4984588;28;20042;-57
2021/12/18 10:53:21;;;;;;;75.93;22.38;;;5.10;99.90;;;;;;4988210;28;20093;-57
2021/12/18 10:55:56;;;;;;;64.57;21.50;;;5.10;99.90;;;;;;4982573;28;20489;-58
2021/12/18 10:58:38;;;;;;;;;;;5.20;99.90;;;;;;4984203;28;20041;-59
2021/12/18 11:01:11;;;;;;;67.45;19.65;;;5.10;99.90;;;;;;4977440;28;20444;-57
2021/12/18 11:03:43;;;;;;;57.33;19.50;;;5.20;99.90;;;;;;4988021;28;20050;-58
2021/12/18 11:06:11;;;;;;;56.00;20.67;;;5.20;99.90;;;;;;4989016;28;20285;-57
2021/12/18 11:09:08;;;;;;;56.58;18.25;;;5.30;99.90;;;;;;4984542;28;20034;-57
2021/12/18 11:14:31;;;;;;;90.70;40.97;;;5.30;99.90;;;;;;4988403;28;20042;-56
2021/12/18 11:16:59;;;;;;;52.55;26.45;;;5.30;99.90;;;;;;4987739;28;20105;-58
2021/12/18 11:19:28;;;;;;;64.90;28.58;;;5.40;99.90;;;;;;4987661;28;20018;-59
2021/12/18 11:21:57;;;;;;;82.88;26.92;;;5.40;99.90;;;;;;4987636;28;20018;-59
2021/12/18 11:24:37;;;;;;;48.75;16.30;;;5.40;99.90;;;;;;4986957;28;20109;-60
2021/12/18 11:27:14;;;;;;;39.92;16.17;;;5.40;99.90;;;;;;4986664;28;20062;-55
2021/12/18 11:29:45;;;;;;;55.20;17.27;;;5.50;99.90;;;;;;4989475;28;20046;-56
2021/12/18 11:32:14;;;;;;;65.30;17.38;;;5.50;99.90;;;;;;4985619;28;20750;-56
2021/12/18 11:34:40;;;;;;;79.13;28.00;;;5.50;99.90;;;;;;4986002;28;20644;-54
2021/12/18 11:37:09;;;;;;;97.38;37.40;;;5.40;99.90;;;;;;4987886;28;20096;-57
2021/12/18 11:39:36;;;;;;;77.97;22.63;;;5.40;99.90;;;;;;4988369;28;20547;-53
2021/12/18 11:42:02;;;;;;;71.55;23.63;;;5.40;99.90;;;;;;4971870;28;20076;-58
2021/12/18 11:44:36;;;;;;;63.80;17.25;;;5.40;99.90;;;;;;4987413;28;20026;-58
2021/12/18 11:47:24;;;;;;;57.27;17.80;;;5.50;99.90;;;;;;4987652;28;20095;-53
2021/12/18 11:49:51;;;;;;;119.13;38.10;;;5.40;99.90;;;;;;4980178;28;20019;-57
2021/12/18 11:52:17;;;;;;;52.65;18.65;;;5.40;99.90;;;;;;4987488;28;20034;-56
2021/12/18 11:54:51;;;;;;;79.03;27.85;;;5.50;99.90;;;;;;4987232;28;20089;-59
2021/12/18 11:57:38;;;;;;;87.38;29.30;;;5.50;99.90;;;;;;4985950;28;20034;-59
2021/12/18 12:00:08;;;;;;;101.97;32.22;;;5.60;99.90;;;;;;4987104;28;20052;-56
2021/12/18 12:02:49;;;;;;;153.43;20.75;;;5.60;99.90;;;;;;4978048;28;20058;-57
2021/12/18 12:05:17;;;;;;;60.53;13.35;;;5.60;99.90;;;;;;4992877;28;20027;-56
2021/12/18 12:07:44;;;;;;;52.50;17.42;;;5.60;99.90;;;;;;4992664;28;20404;-58
2021/12/18 12:10:24;;;;;;;58.58;19.42;;;5.60;99.90;;;;;;4989121;28;20025;-57
2021/12/18 12:12:52;;;;;;;52.67;16.33;;;5.70;99.90;;;;;;4992290;28;20033;-57
2021/12/18 12:15:19;;;;;;;49.58;19.75;;;5.70;99.90;;;;;;4993594;28;20030;-58
2021/12/18 12:17:58;;;;;;;46.35;16.88;;;5.70;99.90;;;;;;4992232;28;20483;-55
2021/12/18 12:20:34;;;;;;;36.05;12.25;;;5.80;99.90;;;;;;4985165;28;20027;-56
2021/12/18 12:23:02;;;;;;;41.00;12.48;;;5.60;99.90;;;;;;4993026;28;20440;-57
2021/12/18 12:25:40;;;;;;;45.20;13.85;;;5.60;99.90;;;;;;4981369;28;20042;-56
2021/12/18 12:28:25;;;;;;;48.03;14.50;;;5.60;99.90;;;;;;4986765;28;20037;-50
2021/12/18 12:31:00;;;;;;;63.20;15.68;;;5.60;99.90;;;;;;4993542;28;20022;-59
2021/12/18 12:33:27;;;;;;;122.18;25.23;;;5.50;99.90;;;;;;4989794;28;20088;-57
2021/12/18 12:36:14;;;;;;;45.30;16.67;;;5.50;99.90;;;;;;4993465;28;20035;-57
2021/12/18 12:38:54;;;;;;;34.53;14.48;;;5.60;99.90;;;;;;4989308;28;20026;-55
2021/12/18 12:41:34;;;;;;;36.50;14.48;;;5.60;99.90;;;;;;4992317;28;20085;-57
2021/12/18 12:44:26;;;;;;;69.97;18.98;;;5.70;99.90;;;;;;4992554;28;20443;-55
2021/12/18 12:47:17;;;;;;;145.68;50.95;;;5.70;99.90;;;;;;4982589;28;20042;-55
2021/12/18 12:49:44;;;;;;;114.13;50.55;;;5.70;99.90;;;;;;4991957;28;20081;-55
2021/12/18 12:52:15;;;;;;;49.72;12.57;;;5.70;99.90;;;;;;5000737;28;20105;-53
2021/12/18 12:54:46;;;;;;;65.45;25.15;;;5.60;99.90;;;;;;4993838;28;20018;-52
2021/12/18 12:57:27;;;;;;;57.95;18.70;;;5.70;99.90;;;;;;4990818;28;20569;-54
2021/12/18 12:59:58;;;;;;;61.35;21.85;;;5.60;99.90;;;;;;4989719;28;20026;-57
2021/12/18 13:02:28;;;;;;;67.13;27.38;;;5.70;99.90;;;;;;4988897;28;20061;-57
2021/12/18 13:05:02;;;;;;;91.40;25.70;;;5.80;99.90;;;;;;4992786;28;20053;-57
2021/12/18 13:07:28;;;;;;;206.30;25.23;;;5.80;99.90;;;;;;4994323;28;20026;-56
2021/12/18 13:09:54;;;;;;;67.15;17.10;;;5.80;99.90;;;;;;4991863;28;20149;-58
2021/12/18 13:12:20;;;;;;;260.90;93.80;;;5.80;99.90;;;;;;4992402;28;20034;-58
2021/12/18 13:14:46;;;;;;;154.43;34.30;;;5.80;99.90;;;;;;4993257;28;20038;-57
2021/12/18 13:17:26;;;;;;;106.28;26.80;;;5.80;99.90;;;;;;4992701;28;20504;-56
2021/12/18 13:20:01;;;;;;;113.20;23.60;;;5.80;99.90;;;;;;4992812;28;20030;-57
2021/12/18 13:22:32;;;;;;;66.03;14.70;;;5.80;99.90;;;;;;4999278;28;20042;-55
2021/12/18 13:25:07;;;;;;;84.18;18.67;;;5.80;99.90;;;;;;4993040;28;20034;-58
2021/12/18 13:27:34;;;;;;;108.57;15.25;;;5.70;99.90;;;;;;4992018;28;20029;-56
2021/12/18 13:30:20;;;;;;;76.78;12.95;;;5.70;99.90;;;;;;4984368;28;20029;-56
2021/12/18 13:32:54;;;;;;;85.13;19.00;;;5.70;99.90;;;;;;4992055;28;20080;-59